Syosyun — JD2406 — position and weather

sailwx.info

Track history (hours):
 
Tides and Currents Weather Stations Pressure Air Temp Water Temp Dewpoint Dewpoint Depression Visibility Wind Speed Wind Dir Waves Ship Positions

Syosyun

Last reported at 2015-Jul-05 08:31 UTC. Time now 2015-Jul-05 09:29 UTC.
Position N 35°41' E 139°59'.

Length 74 m; draft 4.7 m.

Type: Cargo ship. MMSI: 431000201.

Date/timePositionNaut miles runAvg speedWind from/ knotsBaromVisibWave heightAir tempDewpointWater temp
2015-Jul-05 08:31N 35°41' E 139°59'0 0.0
2015-Jul-05 07:31N 35°41' E 139°59'0 0.0
2015-Jul-05 06:31N 35°41' E 139°59'0 0.0
2015-Jul-05 05:19N 35°41' E 139°59'0 0.0
2015-Jul-05 04:31N 35°41' E 139°59'0 0.0
2015-Jul-05 03:31N 35°41' E 139°59'0 0.0
2015-Jul-05 02:25N 35°41' E 139°59'0 0.0
2015-Jul-05 01:25N 35°41' E 139°59'0 0.0
2015-Jul-05 00:31N 35°41' E 139°59'0 0.0
2015-Jul-04 23:31N 35°41' E 139°59'0 0.0
2015-Jul-04 22:25N 35°41' E 139°59'0 0.0
2015-Jul-04 21:31N 35°41' E 139°59'0 0.0
2015-Jul-04 19:31N 35°41' E 139°59'0 0.0
2015-Jul-04 18:19N 35°41' E 139°59'0 0.0
2015-Jul-04 17:31N 35°41' E 139°59'0 0.0
2015-Jul-04 15:19N 35°41' E 139°59'0 0.0
2015-Jul-04 14:31N 35°41' E 139°59'0 0.0
2015-Jul-04 13:31N 35°41' E 139°59'0 0.0
2015-Jul-04 12:13N 35°41' E 139°59'0 0.0
2015-Jul-04 11:31N 35°41' E 139°59'0 0.0
2015-Jul-04 10:25N 35°41' E 139°59'0 0.0
2015-Jul-04 09:13N 35°41' E 139°59'0 0.0
2015-Jul-04 08:31N 35°41' E 139°59'0 0.0
2015-Jul-04 07:24N 35°41' E 139°59'0 0.0
2015-Jul-04 06:24N 35°41' E 139°59'0 0.0
2015-Jul-04 05:18N 35°41' E 139°59'0 0.0
2015-Jul-04 04:06N 35°41' E 139°59'0 0.0
2015-Jul-04 02:30N 35°41' E 139°59'0 0.0
2015-Jul-04 01:24N 35°41' E 139°59'0 0.0
2015-Jul-04 00:30N 35°41' E 139°59'0 0.0
2015-Jul-03 23:18N 35°41' E 139°59'0 0.0
2015-Jul-03 21:30N 35°41' E 139°59'0 0.0
2015-Jul-03 20:30N 35°41' E 139°59'0 0.0
2015-Jul-03 19:30N 35°41' E 139°59'0 0.0
2015-Jul-03 18:30N 35°41' E 139°59'0 0.0
2015-Jul-03 17:30N 35°41' E 139°59'0 0.0
2015-Jul-03 16:30N 35°41' E 139°59'0 0.0
2015-Jul-03 15:18N 35°41' E 139°59'0 0.0
2015-Jul-03 14:12N 35°41' E 139°59'0 0.0
2015-Jul-03 13:24N 35°41' E 139°59'0 0.0
2015-Jul-03 12:18N 35°41' E 139°59'0 0.0
2015-Jul-03 11:06N 35°41' E 139°59'0 0.0
2015-Jul-03 10:24N 35°41' E 139°59'0 0.0
2015-Jul-03 09:30N 35°41' E 139°59'0 0.0
2015-Jul-03 08:24N 35°41' E 139°59'0 0.0
2015-Jul-03 07:30N 35°41' E 139°59'0 0.3
2015-Jul-03 06:33N 35°40' E 139°59'1110.6
2015-Jul-03 05:33N 35°31' E 139°53'1211.6
2015-Jul-03 04:33N 35°21' E 139°45'1110.8
2015-Jul-03 03:33N 35°11' E 139°47'1111.2
2015-Jul-03 02:33N 35°02' E 139°38'  
2015-Jun-28 01:23N 34°37' E 135°01'8 9.2
2015-Jun-28 00:33N 34°38' E 135°10'3 2.9
2015-Jun-27 23:32N 34°41' E 135°12'0 0.0
2015-Jun-27 22:32N 34°41' E 135°12'0 0.0
2015-Jun-27 21:26N 34°41' E 135°12'0 0.0
2015-Jun-27 20:32N 34°41' E 135°12'0 0.0
2015-Jun-27 19:32N 34°41' E 135°12'0 0.0
2015-Jun-27 18:32N 34°41' E 135°12'0 0.0
2015-Jun-27 17:32N 34°41' E 135°12'0 0.0
2015-Jun-27 16:32N 34°41' E 135°12'0 0.0
2015-Jun-27 15:32N 34°41' E 135°12'0 0.0
2015-Jun-27 14:32N 34°41' E 135°12'0 0.0
2015-Jun-27 13:32N 34°41' E 135°12'0 0.0
2015-Jun-27 12:32N 34°41' E 135°12'0 0.0
2015-Jun-27 11:20N 34°41' E 135°12'0 0.0
2015-Jun-27 10:32N 34°41' E 135°12'4 3.9
2015-Jun-27 09:33N 34°38' E 135°14'10 9.5
2015-Jun-27 08:33N 34°37' E 135°26'0 0.0
2015-Jun-27 07:30N 34°37' E 135°26'0 0.0
2015-Jun-27 06:30N 34°37' E 135°26'0 0.0
2015-Jun-27 05:30N 34°37' E 135°26'0 0.0
2015-Jun-27 04:30N 34°37' E 135°26'0 0.0
2015-Jun-27 03:30N 34°37' E 135°26'0 0.0
2015-Jun-27 02:30N 34°37' E 135°26'0 0.1
2015-Jun-27 01:33N 34°37' E 135°26'4 4.3
2015-Jun-27 00:34N 34°34' E 135°23'3 0.9
2015-Jun-26 21:19N 34°31' E 135°24'0 0.0
2015-Jun-26 09:19N 34°31' E 135°24'0 0.0
2015-Jun-26 08:07N 34°31' E 135°24'0 0.0
2015-Jun-26 02:19N 34°31' E 135°24'2 2.9
2015-Jun-26 01:32N 34°32' E 135°22'1110.9
2015-Jun-26 00:33N 34°26' E 135°11'1210.8
2015-Jun-25 23:27N 34°17' E 135°03'1011.2
2015-Jun-25 22:33N 34°07' E 135°02'  
Track history (hours):
 
Tides and Currents Weather Stations Pressure Air Temp Water Temp Dewpoint Dewpoint Depression Visibility Wind Speed Wind Dir Waves Ship Positions

Syosyun

Last reported at 2015-Jul-05 08:31 UTC. Time now 2015-Jul-05 09:29 UTC.
Position N 35°41' E 139°59'.

Length 74 m; draft 4.7 m.

Type: Cargo ship. MMSI: 431000201.

Date/timePositionNaut miles runAvg speedWind from/ knotsBaromVisibWave heightAir tempDewpointWater temp
2015-Jul-05 08:31N 35°41' E 139°59'0 0.0
2015-Jul-05 07:31N 35°41' E 139°59'0 0.0
2015-Jul-05 06:31N 35°41' E 139°59'0 0.0
2015-Jul-05 05:19N 35°41' E 139°59'0 0.0
2015-Jul-05 04:31N 35°41' E 139°59'0 0.0
2015-Jul-05 03:31N 35°41' E 139°59'0 0.0
2015-Jul-05 02:25N 35°41' E 139°59'0 0.0
2015-Jul-05 01:25N 35°41' E 139°59'0 0.0
2015-Jul-05 00:31N 35°41' E 139°59'0 0.0
2015-Jul-04 23:31N 35°41' E 139°59'0 0.0
2015-Jul-04 22:25N 35°41' E 139°59'0 0.0
2015-Jul-04 21:31N 35°41' E 139°59'0 0.0
2015-Jul-04 19:31N 35°41' E 139°59'0 0.0
2015-Jul-04 18:19N 35°41' E 139°59'0 0.0
2015-Jul-04 17:31N 35°41' E 139°59'0 0.0
2015-Jul-04 15:19N 35°41' E 139°59'0 0.0
2015-Jul-04 14:31N 35°41' E 139°59'0 0.0
2015-Jul-04 13:31N 35°41' E 139°59'0 0.0
2015-Jul-04 12:13N 35°41' E 139°59'0 0.0
2015-Jul-04 11:31N 35°41' E 139°59'0 0.0
2015-Jul-04 10:25N 35°41' E 139°59'0 0.0
2015-Jul-04 09:13N 35°41' E 139°59'0 0.0
2015-Jul-04 08:31N 35°41' E 139°59'0 0.0
2015-Jul-04 07:24N 35°41' E 139°59'0 0.0
2015-Jul-04 06:24N 35°41' E 139°59'0 0.0
2015-Jul-04 05:18N 35°41' E 139°59'0 0.0
2015-Jul-04 04:06N 35°41' E 139°59'0 0.0
2015-Jul-04 02:30N 35°41' E 139°59'0 0.0
2015-Jul-04 01:24N 35°41' E 139°59'0 0.0
2015-Jul-04 00:30N 35°41' E 139°59'0 0.0
2015-Jul-03 23:18N 35°41' E 139°59'0 0.0
2015-Jul-03 21:30N 35°41' E 139°59'0 0.0
2015-Jul-03 20:30N 35°41' E 139°59'0 0.0
2015-Jul-03 19:30N 35°41' E 139°59'0 0.0
2015-Jul-03 18:30N 35°41' E 139°59'0 0.0
2015-Jul-03 17:30N 35°41' E 139°59'0 0.0
2015-Jul-03 16:30N 35°41' E 139°59'0 0.0
2015-Jul-03 15:18N 35°41' E 139°59'0 0.0
2015-Jul-03 14:12N 35°41' E 139°59'0 0.0
2015-Jul-03 13:24N 35°41' E 139°59'0 0.0
2015-Jul-03 12:18N 35°41' E 139°59'0 0.0
2015-Jul-03 11:06N 35°41' E 139°59'0 0.0
2015-Jul-03 10:24N 35°41' E 139°59'0 0.0
2015-Jul-03 09:30N 35°41' E 139°59'0 0.0
2015-Jul-03 08:24N 35°41' E 139°59'0 0.0
2015-Jul-03 07:30N 35°41' E 139°59'0 0.3
2015-Jul-03 06:33N 35°40' E 139°59'1110.6
2015-Jul-03 05:33N 35°31' E 139°53'1211.6
2015-Jul-03 04:33N 35°21' E 139°45'1110.8
2015-Jul-03 03:33N 35°11' E 139°47'1111.2
2015-Jul-03 02:33N 35°02' E 139°38'  
2015-Jun-28 01:23N 34°37' E 135°01'8 9.2
2015-Jun-28 00:33N 34°38' E 135°10'3 2.9
2015-Jun-27 23:32N 34°41' E 135°12'0 0.0
2015-Jun-27 22:32N 34°41' E 135°12'0 0.0
2015-Jun-27 21:26N 34°41' E 135°12'0 0.0
2015-Jun-27 20:32N 34°41' E 135°12'0 0.0
2015-Jun-27 19:32N 34°41' E 135°12'0 0.0
2015-Jun-27 18:32N 34°41' E 135°12'0 0.0
2015-Jun-27 17:32N 34°41' E 135°12'0 0.0
2015-Jun-27 16:32N 34°41' E 135°12'0 0.0
2015-Jun-27 15:32N 34°41' E 135°12'0 0.0
2015-Jun-27 14:32N 34°41' E 135°12'0 0.0
2015-Jun-27 13:32N 34°41' E 135°12'0 0.0
2015-Jun-27 12:32N 34°41' E 135°12'0 0.0
2015-Jun-27 11:20N 34°41' E 135°12'0 0.0
2015-Jun-27 10:32N 34°41' E 135°12'4 3.9
2015-Jun-27 09:33N 34°38' E 135°14'10 9.5
2015-Jun-27 08:33N 34°37' E 135°26'0 0.0
2015-Jun-27 07:30N 34°37' E 135°26'0 0.0
2015-Jun-27 06:30N 34°37' E 135°26'0 0.0
2015-Jun-27 05:30N 34°37' E 135°26'0 0.0
2015-Jun-27 04:30N 34°37' E 135°26'0 0.0
2015-Jun-27 03:30N 34°37' E 135°26'0 0.0
2015-Jun-27 02:30N 34°37' E 135°26'0 0.1
2015-Jun-27 01:33N 34°37' E 135°26'4 4.3
2015-Jun-27 00:34N 34°34' E 135°23'3 0.9
2015-Jun-26 21:19N 34°31' E 135°24'0 0.0
2015-Jun-26 09:19N 34°31' E 135°24'0 0.0
2015-Jun-26 08:07N 34°31' E 135°24'0 0.0
2015-Jun-26 02:19N 34°31' E 135°24'2 2.9
2015-Jun-26 01:32N 34°32' E 135°22'1110.9
2015-Jun-26 00:33N 34°26' E 135°11'1210.8
2015-Jun-25 23:27N 34°17' E 135°03'1011.2
2015-Jun-25 22:33N 34°07' E 135°02'  

Dump ship's entire track history